Historyczne dane pomiarowe

Dodano dane terminowe – wersja testowa.

Dane z okresu 1951-2019

Wersja bazy: 1.34 [2019-03-16, lista zmian], aktualizacja planowana na 2019-04-15

Dane meteo z obszaru Polski uzyskane na podstawie danych udostępnionych przez Instytut Meteorologii i Gospodarki Wodnej – Państwowy Instytut Badawczy.

 

Wybierz Datę:    

       

TemperaturaWilgotnośćWiatrCiśnienieOpadyŚniegCzas trwania zjawisk
 Stacja t tx tn tng RH VA  wxwx mslp ppp RRR   cm mm wxwxwxwxwxwxwx
1984-05-15 16.3 22.0 11.1 9.6 79.5- 5.3 3.7---- 0.0------------
1984-05-16 16.6 23.0 9.1 5.4 70.3- 1.3 2.0---- 0.0------------
1984-05-17 15.9 22.6 11.4 7.5 85.8- 7.7 1.3---- 6.5------------
1984-05-18 13.4 23.0 9.4 7.5 95.0- 8.0 0.7---- 30.1------------
1984-05-19 14.2 19.4 10.4 8.4 83.3- 3.7 1.3---- 0.0------------
1984-05-20 14.7 21.5 5.7 3.1 80.5- 4.0 1.3---- 2.2------------
1984-05-21 18.5 25.1 10.4 7.1 71.5- 4.0 4.7---- 2.2------------
1984-05-22 15.3 20.3 13.3 11.7 78.3- 6.0 2.0---- 0.1------------
1984-05-23 13.4 19.8 6.2 3.0 88.3- 6.7 0.7---- 14.2------------
1984-05-24 15.9 19.2 12.4 10.7 75.0- 5.0 2.7---- 0.6------------
1984-05-25 12.5 18.1 7.9 5.4 85.5- 8.0 1.0---- 24.6------------
1984-05-26 12.3 16.0 10.4 10.0 89.5- 7.0 1.0---- 4.4------------
1984-05-27 13.4 20.0 7.0 3.6 83.8- 2.7 1.3---- 4.0------------
1984-05-28 14.6 22.0 9.3 5.9 82.8- 4.7 1.7---- 0.0------------
1984-05-29 16.2 21.5 10.3 6.0 79.8- 5.0 1.7---- 3.9------------
1984-05-30 15.0 22.4 8.4 6.3 88.3- 7.3 0.7---- 12.9------------
1984-05-31 16.6 22.5 12.6 10.7 84.3- 6.3 1.3---- 0.5------------
1984-06-01 15.9 23.0 12.1 10.0 84.8- 6.3 0.7---- 38.3------------
1984-06-02 17.7 22.6 12.9 11.4 85.0- 4.7 1.3---- 0.4------------
1984-06-03 18.4 24.0 11.4 8.5 78.5- 2.0 1.7---- 0.0------------
1984-06-04 18.4 23.5 12.7 11.4 72.3- 5.3 3.7---- 0.0------------
1984-06-05 16.4 21.2 14.6 13.0 89.5- 7.7 1.3---- 13.1------------
1984-06-06 17.4 24.0 13.3 10.5 78.0- 5.0 3.0---- 1.4------------
1984-06-07 14.2 18.5 10.7 7.6 78.5- 6.7 2.0---- 2.7------------
1984-06-08 13.5 17.8 10.9 10.5 82.5- 5.7 2.0---- 1.2------------
1984-06-09 11.5 14.6 7.9 5.1 83.0- 7.3 3.7---- 2.6------------
1984-06-10 10.0 14.3 4.5 1.2 87.5- 6.7 3.3---- 5.5------------
1984-06-11 8.1 13.0 4.2 1.1 81.3- 6.0 2.3---- 6.8------------
1984-06-12 9.5 13.7 2.8 0.7 68.8- 3.0 2.0---- 0.1------------
1984-06-13 11.3 17.2 0.7 -1.1 66.3- 5.0 2.0---- 4.7------------
245.4 ms

 

Źródłem pochodzenia danych jest Instytut Meteorologii i Gospodarki Wodnej – Państwowy Instytut Badawczy. Dane Instytutu Meteorologii i Gospodarki Wodnej – Państwowego Instytutu Badawczego zostały przetworzone.

Dane źródłowe można odnaleźć na stronie https://dane.imgw.pl